createdAt,value
2018-09-15T00:00:25.448Z,10.30
2018-09-15T00:02:28.975Z,10.00
2018-09-15T00:04:32.525Z,10.00
2018-09-15T00:06:36.330Z,9.80
2018-09-15T00:08:46.626Z,10.40
2018-09-15T00:10:50.237Z,11.20
2018-09-15T00:12:53.861Z,11.93
2018-09-15T00:14:57.442Z,11.60
2018-09-15T00:17:00.920Z,12.10
2018-09-15T00:19:04.456Z,11.73
2018-09-15T00:21:08.012Z,11.50
2018-09-15T00:23:12.184Z,12.27
2018-09-15T00:25:15.839Z,10.27
2018-09-15T00:27:19.375Z,9.70
2018-09-15T00:29:22.902Z,10.20
2018-09-15T00:31:26.473Z,9.27
2018-09-15T00:33:30.056Z,10.23
2018-09-15T00:35:33.610Z,10.53
2018-09-15T00:37:37.130Z,10.93
2018-09-15T00:39:40.720Z,10.73
2018-09-15T00:41:44.273Z,11.77
2018-09-15T00:43:48.040Z,12.33
2018-09-15T00:45:51.533Z,11.20
2018-09-15T00:47:54.997Z,11.70
2018-09-15T00:49:58.644Z,11.27
2018-09-15T00:52:02.142Z,10.23
2018-09-15T00:54:05.753Z,11.67
2018-09-15T00:56:09.308Z,11.10
2018-09-15T00:58:12.837Z,12.87
2018-09-15T01:00:16.441Z,11.80
2018-09-15T01:02:19.985Z,10.03
2018-09-15T01:04:23.704Z,10.93
2018-09-15T01:06:27.958Z,10.60
2018-09-15T01:08:31.452Z,11.00
2018-09-15T01:10:35.016Z,10.43
2018-09-15T01:12:44.985Z,11.60
2018-09-15T01:14:48.532Z,10.80
2018-09-15T01:16:52.056Z,9.80
2018-09-15T01:18:55.546Z,10.77
2018-09-15T01:20:59.151Z,9.90
2018-09-15T01:23:02.673Z,10.83
2018-09-15T01:25:06.219Z,11.03
2018-09-15T01:27:09.728Z,10.67
2018-09-15T01:29:13.309Z,10.47
2018-09-15T01:31:16.923Z,10.30
2018-09-15T01:33:20.388Z,10.30
2018-09-15T01:35:24.356Z,10.10
2018-09-15T01:37:27.910Z,9.97
2018-09-15T01:39:31.455Z,9.83
2018-09-15T01:41:35.010Z,9.97
2018-09-15T01:43:38.528Z,10.13
2018-09-15T01:45:42.143Z,11.47
2018-09-15T01:47:45.660Z,10.80
2018-09-15T01:49:49.258Z,10.80
2018-09-15T01:51:52.885Z,10.37
2018-09-15T01:53:56.479Z,10.20
2018-09-15T01:56:00.076Z,10.10
2018-09-15T01:58:03.654Z,9.17
2018-09-15T02:00:07.966Z,10.10
2018-09-15T02:02:11.441Z,9.83
2018-09-15T02:04:14.993Z,9.57
2018-09-15T02:06:18.898Z,9.47
2018-09-15T02:08:22.464Z,10.40
2018-09-15T02:10:26.330Z,9.47
2018-09-15T02:12:29.927Z,11.83
2018-09-15T02:14:33.465Z,12.17
2018-09-15T02:16:37.040Z,10.23
2018-09-15T02:18:40.591Z,10.63
2018-09-15T02:20:44.112Z,10.73
2018-09-15T02:22:48.075Z,10.30
2018-09-15T02:24:51.786Z,12.07
2018-09-15T02:26:55.347Z,10.50
2018-09-15T02:28:58.896Z,9.63
2018-09-15T02:31:02.679Z,9.83
2018-09-15T02:33:06.459Z,10.30
2018-09-15T02:35:10.043Z,9.57
2018-09-15T02:37:13.909Z,10.27
2018-09-15T02:39:17.804Z,9.70
2018-09-15T02:41:21.363Z,9.97
2018-09-15T02:43:25.640Z,9.70
2018-09-15T02:45:29.486Z,13.05
2018-09-15T02:47:33.353Z,12.68
2018-09-15T02:49:37.157Z,15.48
2018-09-15T02:51:40.997Z,15.03
2018-09-15T02:53:44.801Z,17.48
2018-09-15T02:55:48.645Z,15.60
2018-09-15T02:57:52.462Z,14.58
2018-09-15T02:59:56.264Z,12.15
2018-09-15T03:02:00.149Z,12.20
2018-09-15T03:04:04.393Z,12.53
2018-09-15T03:06:08.213Z,10.98
2018-09-15T03:08:11.991Z,10.93
2018-09-15T03:10:15.917Z,11.28
2018-09-15T03:12:19.721Z,10.90
2018-09-15T03:14:23.557Z,10.80
2018-09-15T03:16:27.399Z,9.93
2018-09-15T03:18:31.212Z,10.88
2018-09-15T03:20:35.064Z,10.32
2018-09-15T03:22:38.923Z,10.53
2018-09-15T03:24:42.773Z,10.00
2018-09-15T03:26:46.694Z,10.50
2018-09-15T03:28:50.532Z,10.40
2018-09-15T03:30:54.407Z,11.03
2018-09-15T03:32:58.198Z,11.25
2018-09-15T03:35:02.473Z,10.35
2018-09-15T03:37:06.399Z,9.83
2018-09-15T03:39:11.490Z,9.98
2018-09-15T03:41:15.318Z,9.65
2018-09-15T03:43:19.125Z,10.40
2018-09-15T03:45:23.005Z,12.37
2018-09-15T03:47:26.803Z,10.20
2018-09-15T03:49:30.683Z,11.05
2018-09-15T03:51:34.520Z,10.18
2018-09-15T03:53:38.360Z,10.35
2018-09-15T03:55:42.174Z,10.63
2018-09-15T03:57:46.024Z,9.98
2018-09-15T03:59:49.839Z,10.23
2018-09-15T04:01:53.873Z,11.08
2018-09-15T04:03:57.736Z,11.22
2018-09-15T04:06:01.506Z,11.45
2018-09-15T04:08:05.415Z,11.63
2018-09-15T04:10:09.298Z,10.58
2018-09-15T04:12:13.155Z,11.45
2018-09-15T04:14:16.981Z,11.00
2018-09-15T04:16:20.814Z,11.80
2018-09-15T04:18:24.716Z,10.70
2018-09-15T04:20:28.517Z,11.22
2018-09-15T04:22:32.340Z,10.48
2018-09-15T04:24:36.168Z,10.32
2018-09-15T04:26:39.943Z,10.28
2018-09-15T04:28:43.912Z,11.30
2018-09-15T04:30:47.820Z,10.98
2018-09-15T04:32:51.661Z,11.15
2018-09-15T04:34:55.468Z,10.03
2018-09-15T04:36:59.328Z,11.10
2018-09-15T04:39:03.612Z,10.93
2018-09-15T04:41:07.745Z,10.48
2018-09-15T04:43:11.539Z,9.68
2018-09-15T04:45:15.393Z,9.70
2018-09-15T04:47:19.204Z,10.88
2018-09-15T04:49:23.059Z,9.73
2018-09-15T04:51:26.948Z,9.40
2018-09-15T04:53:30.752Z,9.95
2018-09-15T04:55:34.548Z,10.05
2018-09-15T04:57:38.358Z,10.25
2018-09-15T04:59:42.199Z,9.20
2018-09-15T05:01:46.049Z,8.98
2018-09-15T05:03:49.964Z,10.30
2018-09-15T05:05:53.820Z,9.93
2018-09-15T05:07:57.622Z,10.40
2018-09-15T05:10:01.456Z,11.15
2018-09-15T05:12:05.483Z,10.30
2018-09-15T05:14:09.320Z,11.43
2018-09-15T05:16:13.128Z,11.00
2018-09-15T05:18:17.007Z,11.60
2018-09-15T05:20:20.840Z,11.10
2018-09-15T05:22:25.009Z,10.20
2018-09-15T05:24:35.404Z,10.32
2018-09-15T05:26:39.214Z,9.35
2018-09-15T05:28:43.078Z,10.30
2018-09-15T05:30:46.917Z,9.38
2018-09-15T05:32:50.767Z,9.13
2018-09-15T05:34:55.026Z,9.58
2018-09-15T05:36:58.847Z,9.58
2018-09-15T05:39:02.865Z,9.03
2018-09-15T05:41:06.709Z,9.40
2018-09-15T05:43:10.649Z,8.88
2018-09-15T05:45:14.470Z,9.13
2018-09-15T05:47:18.339Z,8.25
2018-09-15T05:49:22.173Z,7.90
2018-09-15T05:51:26.052Z,8.53
2018-09-15T05:53:29.886Z,7.92
2018-09-15T05:55:33.411Z,8.30
2018-09-15T05:57:37.180Z,7.27
2018-09-15T05:59:40.774Z,7.70
2018-09-15T06:01:44.419Z,7.80
2018-09-15T06:03:48.078Z,7.80
2018-09-15T06:05:51.604Z,8.43
2018-09-15T06:07:55.612Z,8.00
2018-09-15T06:09:59.150Z,7.70
2018-09-15T06:12:02.701Z,7.03
2018-09-15T06:14:06.313Z,6.80
2018-09-15T06:16:09.868Z,6.97
2018-09-15T06:18:13.395Z,7.40
2018-09-15T06:20:16.892Z,7.30
2018-09-15T06:22:20.489Z,7.53
2018-09-15T06:24:24.236Z,6.90
2018-09-15T06:26:27.961Z,7.27
2018-09-15T06:28:31.528Z,6.97
2018-09-15T06:30:35.103Z,6.10
2018-09-15T06:32:38.654Z,6.27
2018-09-15T06:34:42.134Z,5.47
2018-09-15T06:36:45.718Z,5.10
2018-09-15T06:38:49.220Z,5.60
2018-09-15T06:40:52.747Z,4.63
2018-09-15T06:42:56.312Z,4.87
2018-09-15T06:44:59.832Z,4.83
2018-09-15T06:47:06.318Z,4.10
2018-09-15T06:49:09.966Z,4.20
2018-09-15T06:51:13.457Z,4.23
2018-09-15T06:53:16.991Z,4.73
2018-09-15T06:55:20.506Z,4.20
2018-09-15T06:57:24.120Z,4.60
2018-09-15T06:59:28.636Z,5.00
2018-09-15T07:01:32.133Z,4.67
2018-09-15T07:03:35.732Z,5.57
2018-09-15T07:05:39.250Z,5.33
2018-09-15T07:07:42.706Z,5.40
2018-09-15T07:09:46.240Z,6.43
2018-09-15T07:11:49.801Z,6.40
2018-09-15T07:13:53.437Z,6.47
2018-09-15T07:15:57.026Z,6.30
2018-09-15T07:18:00.558Z,6.00
2018-09-15T07:20:04.135Z,6.00
2018-09-15T07:22:08.219Z,5.10
2018-09-15T07:24:11.760Z,4.33
2018-09-15T07:26:15.290Z,5.10
2018-09-15T07:28:18.815Z,4.77
2018-09-15T07:30:22.320Z,5.27
2018-09-15T07:32:25.879Z,5.53
2018-09-15T07:34:29.418Z,5.13
2018-09-15T07:36:32.909Z,4.40
2018-09-15T07:38:36.458Z,5.37
2018-09-15T07:40:39.992Z,4.90
2018-09-15T07:42:43.487Z,5.30
2018-09-15T07:44:47.078Z,4.80
2018-09-15T07:46:50.701Z,5.10
2018-09-15T07:48:54.283Z,4.87
2018-09-15T07:50:57.825Z,6.10
2018-09-15T07:53:01.360Z,5.17
2018-09-15T07:55:05.127Z,5.63
2018-09-15T07:57:08.688Z,5.33
2018-09-15T07:59:12.213Z,4.93
2018-09-15T08:01:15.720Z,5.23
2018-09-15T08:03:19.264Z,4.73
2018-09-15T08:05:23.211Z,4.27
2018-09-15T08:07:26.742Z,5.30
2018-09-15T08:09:30.354Z,4.93
2018-09-15T08:11:33.896Z,5.30
2018-09-15T08:13:37.607Z,4.70
2018-09-15T08:15:41.084Z,4.90
2018-09-15T08:17:44.647Z,4.67
2018-09-15T08:19:48.158Z,5.67
2018-09-15T08:21:51.704Z,5.00
2018-09-15T08:23:55.229Z,5.50
2018-09-15T08:25:59.111Z,5.60
2018-09-15T08:28:09.436Z,5.27
2018-09-15T08:30:12.958Z,4.83
2018-09-15T08:32:16.519Z,4.80
2018-09-15T08:34:20.128Z,5.30
2018-09-15T08:36:23.640Z,4.57
2018-09-15T08:38:27.170Z,4.80
2018-09-15T08:40:30.895Z,6.00
2018-09-15T08:42:34.383Z,4.97
2018-09-15T08:44:37.934Z,5.10
2018-09-15T08:46:41.472Z,4.87
2018-09-15T08:48:44.973Z,4.60
2018-09-15T08:50:48.521Z,4.70
2018-09-15T08:52:51.994Z,5.23
2018-09-15T08:54:55.577Z,4.97
2018-09-15T08:56:59.066Z,4.47
2018-09-15T08:59:02.690Z,5.07
2018-09-15T09:01:06.272Z,5.60
2018-09-15T09:03:10.153Z,5.07
2018-09-15T09:05:13.658Z,5.70
2018-09-15T09:07:17.202Z,4.90
2018-09-15T09:09:20.727Z,5.30
2018-09-15T09:11:24.288Z,5.10
2018-09-15T09:13:27.862Z,4.87
2018-09-15T09:15:31.449Z,5.20
2018-09-15T09:17:34.972Z,4.83
2018-09-15T09:19:38.460Z,4.90
2018-09-15T09:21:42.129Z,5.90
2018-09-15T09:23:45.703Z,5.87
2018-09-15T09:25:49.331Z,4.93
2018-09-15T09:27:52.999Z,4.47
2018-09-15T09:29:56.519Z,5.47
2018-09-15T09:31:59.992Z,4.30
2018-09-15T09:34:03.544Z,5.30
2018-09-15T09:36:07.089Z,5.90
2018-09-15T09:38:10.673Z,4.57
2018-09-15T09:40:14.376Z,5.50
2018-09-15T09:42:17.936Z,5.43
2018-09-15T09:44:21.432Z,4.60
2018-09-15T09:46:24.976Z,5.30
2018-09-15T09:48:28.465Z,6.20
2018-09-15T09:50:31.987Z,5.03
2018-09-15T09:52:35.480Z,5.37
2018-09-15T09:54:38.985Z,6.63
2018-09-15T09:56:42.494Z,6.00
2018-09-15T09:58:46.004Z,5.40
2018-09-15T10:00:54.892Z,5.80
2018-09-15T10:02:58.401Z,5.47
2018-09-15T10:05:02.633Z,4.73
2018-09-15T10:07:06.236Z,4.60
2018-09-15T10:09:10.968Z,4.70
2018-09-15T10:11:14.657Z,4.10
2018-09-15T10:13:18.250Z,4.20
2018-09-15T10:15:21.793Z,4.10
2018-09-15T10:17:25.720Z,4.87
2018-09-15T10:19:29.276Z,3.43
2018-09-15T10:21:32.845Z,3.47
2018-09-15T10:23:36.608Z,3.40
2018-09-15T10:25:40.153Z,2.90
2018-09-15T10:27:43.656Z,2.80
2018-09-15T10:29:47.145Z,3.00
2018-09-15T10:31:50.648Z,2.87
2018-09-15T10:33:54.138Z,2.30
2018-09-15T10:35:57.654Z,2.50
2018-09-15T10:38:01.425Z,2.07
2018-09-15T10:40:05.588Z,2.77
2018-09-15T10:42:09.100Z,3.13
2018-09-15T10:44:12.613Z,2.50
2018-09-15T10:46:16.139Z,2.33
2018-09-15T10:48:19.624Z,2.20
2018-09-15T10:50:23.147Z,2.23
2018-09-15T10:52:26.841Z,1.67
2018-09-15T10:54:30.538Z,2.10
2018-09-15T10:56:34.096Z,1.83
2018-09-15T10:58:37.607Z,2.00
2018-09-15T11:00:41.120Z,1.93
2018-09-15T11:02:44.835Z,1.80
2018-09-15T11:04:48.360Z,2.07
2018-09-15T11:06:51.853Z,1.97
2018-09-15T11:08:55.413Z,2.17
2018-09-15T11:10:58.985Z,2.30
2018-09-15T11:13:02.515Z,2.27
2018-09-15T11:15:06.415Z,1.97
2018-09-15T11:17:09.983Z,2.20
2018-09-15T11:19:13.503Z,2.07
2018-09-15T11:21:17.053Z,2.03
2018-09-15T11:23:20.560Z,2.30
2018-09-15T11:25:24.105Z,1.90
2018-09-15T11:27:27.706Z,1.90
2018-09-15T11:29:31.219Z,1.90
2018-09-15T11:31:34.803Z,1.70
2018-09-15T11:33:38.305Z,1.70
2018-09-15T11:35:41.796Z,1.70
2018-09-15T11:37:45.333Z,1.60
2018-09-15T11:39:48.825Z,1.67
2018-09-15T11:41:52.424Z,1.60
2018-09-15T11:43:55.959Z,1.40
2018-09-15T11:45:59.479Z,1.60
2018-09-15T11:48:03.133Z,1.90
2018-09-15T11:50:06.738Z,1.60
2018-09-15T11:52:10.252Z,1.70
2018-09-15T11:54:13.767Z,1.47
2018-09-15T11:56:17.674Z,2.20
2018-09-15T11:58:21.188Z,1.37
2018-09-15T12:00:28.394Z,1.53
2018-09-15T12:02:33.229Z,1.30
2018-09-15T12:04:36.707Z,1.30
2018-09-15T12:06:40.274Z,1.30
2018-09-15T12:08:43.789Z,1.73
2018-09-15T12:10:47.350Z,1.50
2018-09-15T12:12:50.937Z,1.63
2018-09-15T12:14:54.456Z,1.70
2018-09-15T12:16:57.947Z,1.60
2018-09-15T12:19:01.559Z,1.10
2018-09-15T12:21:05.089Z,1.17
2018-09-15T12:23:08.673Z,1.07
2018-09-15T12:25:12.201Z,1.30
2018-09-15T12:27:15.788Z,1.20
2018-09-15T12:29:19.278Z,1.10
2018-09-15T12:31:22.809Z,1.43
2018-09-15T12:33:26.517Z,1.30
2018-09-15T12:35:30.174Z,1.30
2018-09-15T12:37:33.726Z,1.13
2018-09-15T12:39:37.246Z,1.20
2018-09-15T12:41:40.717Z,0.90
2018-09-15T12:43:44.217Z,1.40
2018-09-15T12:45:47.738Z,0.90
2018-09-15T12:47:51.354Z,1.77
2018-09-15T12:49:54.862Z,1.20
2018-09-15T12:51:58.457Z,1.10
2018-09-15T12:54:02.105Z,1.13
2018-09-15T12:56:05.652Z,1.03
2018-09-15T12:58:09.188Z,1.10
2018-09-15T13:00:12.695Z,1.40
2018-09-15T13:02:16.226Z,1.00
2018-09-15T13:04:19.773Z,0.90
2018-09-15T13:06:23.355Z,1.07
2018-09-15T13:08:27.104Z,0.80
2018-09-15T13:10:32.382Z,1.00
2018-09-15T13:12:35.916Z,1.07
2018-09-15T13:14:39.405Z,1.23
2018-09-15T13:16:42.900Z,0.90
2018-09-15T13:18:46.456Z,1.03
2018-09-15T13:20:50.384Z,1.10
2018-09-15T13:22:53.948Z,1.07
2018-09-15T13:24:57.531Z,1.20
2018-09-15T13:27:01.020Z,1.20
2018-09-15T13:29:04.518Z,1.20
2018-09-15T13:31:08.049Z,0.90
2018-09-15T13:33:11.597Z,0.90
2018-09-15T13:35:15.081Z,0.93
2018-09-15T13:37:18.544Z,0.80
2018-09-15T13:39:22.059Z,1.10
2018-09-15T13:41:25.565Z,0.73
2018-09-15T13:43:29.071Z,1.00
2018-09-15T13:45:32.568Z,1.03
2018-09-15T13:47:36.116Z,0.97
2018-09-15T13:49:39.621Z,0.93
2018-09-15T13:51:43.097Z,1.00
2018-09-15T13:53:46.670Z,0.90
2018-09-15T13:55:50.169Z,1.10
2018-09-15T13:57:53.711Z,1.23
2018-09-15T13:59:57.221Z,1.00
2018-09-15T14:02:00.721Z,0.77
2018-09-15T14:04:04.315Z,0.87
2018-09-15T14:06:08.184Z,1.10
2018-09-15T14:08:12.101Z,0.90
2018-09-15T14:10:19.015Z,0.97
2018-09-15T14:12:19.340Z,0.70
2018-09-15T14:14:22.882Z,0.83
2018-09-15T14:16:26.408Z,0.70
2018-09-15T14:18:30.107Z,0.70
2018-09-15T14:20:33.620Z,0.60
2018-09-15T14:22:37.117Z,1.07
2018-09-15T14:24:40.713Z,0.73
2018-09-15T14:26:44.224Z,1.07
2018-09-15T14:28:47.921Z,0.80
2018-09-15T14:30:51.443Z,0.63
2018-09-15T14:32:54.963Z,0.80
2018-09-15T14:34:58.577Z,0.57
2018-09-15T14:37:02.229Z,0.77
2018-09-15T14:39:07.976Z,0.90
2018-09-15T14:41:11.508Z,0.70
2018-09-15T14:43:15.031Z,0.60
2018-09-15T14:45:18.533Z,0.87
2018-09-15T14:47:22.027Z,0.80
2018-09-15T14:49:25.657Z,0.80
2018-09-15T14:51:29.173Z,0.70
2018-09-15T14:53:32.726Z,0.80
2018-09-15T14:55:36.280Z,0.80
2018-09-15T14:57:39.765Z,0.73
2018-09-15T14:59:43.291Z,0.93
2018-09-15T15:01:46.862Z,0.90
2018-09-15T15:03:50.503Z,0.93
2018-09-15T15:05:53.966Z,0.90
2018-09-15T15:07:57.501Z,1.00
2018-09-15T15:10:01.083Z,0.87
2018-09-15T15:12:04.694Z,0.90
2018-09-15T15:14:08.730Z,0.90
2018-09-15T15:16:12.227Z,1.00
2018-09-15T15:18:15.929Z,0.73
2018-09-15T15:20:19.489Z,0.80
2018-09-15T15:22:22.976Z,0.77
2018-09-15T15:24:26.567Z,0.80
2018-09-15T15:26:30.149Z,0.60
2018-09-15T15:28:33.819Z,0.90
2018-09-15T15:30:37.913Z,0.97
2018-09-15T15:32:41.507Z,1.13
2018-09-15T15:34:45.192Z,0.73
2018-09-15T15:36:48.718Z,1.03
2018-09-15T15:38:52.276Z,0.80
2018-09-15T15:40:55.824Z,0.80
2018-09-15T15:42:59.391Z,1.10
2018-09-15T15:45:03.105Z,0.73
2018-09-15T15:47:06.637Z,0.83
2018-09-15T15:49:10.187Z,1.10
2018-09-15T15:51:13.694Z,0.80
2018-09-15T15:53:17.226Z,1.10
2018-09-15T15:55:20.769Z,0.90
2018-09-15T15:57:24.300Z,1.10
2018-09-15T15:59:28.659Z,0.80
2018-09-15T16:01:32.196Z,0.80
2018-09-15T16:03:35.869Z,0.63
2018-09-15T16:05:39.408Z,0.87
2018-09-15T16:07:42.951Z,1.00
2018-09-15T16:09:46.698Z,1.00
2018-09-15T16:11:50.231Z,1.10
2018-09-15T16:13:53.726Z,1.00
2018-09-15T16:15:57.254Z,0.90
2018-09-15T16:18:01.192Z,0.90
2018-09-15T16:20:04.800Z,0.77
2018-09-15T16:22:08.448Z,1.40
2018-09-15T16:24:11.947Z,0.90
2018-09-15T16:26:15.493Z,1.10
2018-09-15T16:28:18.964Z,0.90
2018-09-15T16:30:22.497Z,0.97
2018-09-15T16:32:26.056Z,1.10
2018-09-15T16:34:29.558Z,1.20
2018-09-15T16:36:33.084Z,1.00
2018-09-15T16:38:36.615Z,0.90
2018-09-15T16:40:40.309Z,1.30
2018-09-15T16:42:43.899Z,1.00
2018-09-15T16:44:47.431Z,1.20
2018-09-15T16:46:50.956Z,1.33
2018-09-15T16:48:54.530Z,1.37
2018-09-15T16:50:58.031Z,1.20
2018-09-15T16:53:01.550Z,0.97
2018-09-15T16:55:05.183Z,1.20
2018-09-15T16:57:08.750Z,0.87
2018-09-15T16:59:12.417Z,1.10
2018-09-15T17:01:15.948Z,1.17
2018-09-15T17:03:19.498Z,1.10
2018-09-15T17:05:23.058Z,1.10
2018-09-15T17:07:26.536Z,1.43
2018-09-15T17:09:30.112Z,1.10
2018-09-15T17:11:33.780Z,1.40
2018-09-15T17:13:37.311Z,1.40
2018-09-15T17:15:40.856Z,1.03
2018-09-15T17:17:44.360Z,1.53
2018-09-15T17:19:47.933Z,1.63
2018-09-15T17:21:51.466Z,1.17
2018-09-15T17:23:55.004Z,1.13
2018-09-15T17:25:58.550Z,1.50
2018-09-15T17:28:02.079Z,1.20
2018-09-15T17:30:06.116Z,1.13
2018-09-15T17:32:09.611Z,1.40
2018-09-15T17:34:13.109Z,1.43
2018-09-15T17:36:17.017Z,1.23
2018-09-15T17:38:20.548Z,1.10
2018-09-15T17:40:24.088Z,1.40
2018-09-15T17:42:27.604Z,1.33
2018-09-15T17:44:31.109Z,2.03
2018-09-15T17:46:34.672Z,1.60
2018-09-15T17:48:38.193Z,1.20
2018-09-15T17:50:41.708Z,1.70
2018-09-15T17:52:45.620Z,1.67
2018-09-15T17:54:49.583Z,2.10
2018-09-15T17:56:53.196Z,1.70
2018-09-15T17:58:56.701Z,1.53
2018-09-15T18:01:00.300Z,1.80
2018-09-15T18:03:03.823Z,1.70
2018-09-15T18:05:07.877Z,2.20
2018-09-15T18:07:11.433Z,2.40
2018-09-15T18:09:15.021Z,1.70
2018-09-15T18:11:18.693Z,1.87
2018-09-15T18:13:22.216Z,2.03
2018-09-15T18:15:25.780Z,1.80
2018-09-15T18:17:29.304Z,1.67
2018-09-15T18:19:32.769Z,1.40
2018-09-15T18:21:36.420Z,1.50
2018-09-15T18:23:39.929Z,1.53
2018-09-15T18:25:43.485Z,1.97
2018-09-15T18:27:46.989Z,1.50
2018-09-15T18:29:50.474Z,1.30
2018-09-15T18:31:54.039Z,1.10
2018-09-15T18:33:57.601Z,1.50
2018-09-15T18:36:01.362Z,1.60
2018-09-15T18:38:05.509Z,1.63
2018-09-15T18:40:09.045Z,2.10
2018-09-15T18:42:12.552Z,1.43
2018-09-15T18:44:15.991Z,1.53
2018-09-15T18:46:19.587Z,1.60
2018-09-15T18:48:23.263Z,1.20
2018-09-15T18:50:26.792Z,1.60
2018-09-15T18:52:30.341Z,1.57
2018-09-15T18:54:33.868Z,1.60
2018-09-15T18:56:37.409Z,1.60
2018-09-15T18:58:40.917Z,2.00
2018-09-15T19:00:44.406Z,2.10
2018-09-15T19:02:47.953Z,2.33
2018-09-15T19:04:51.585Z,3.20
2018-09-15T19:06:55.150Z,2.43
2018-09-15T19:08:58.673Z,2.10
2018-09-15T19:11:02.205Z,2.07
2018-09-15T19:13:06.517Z,2.00
2018-09-15T19:15:10.056Z,2.10
2018-09-15T19:17:13.593Z,2.20
2018-09-15T19:19:17.091Z,2.00
2018-09-15T19:21:21.109Z,2.10
2018-09-15T19:23:24.674Z,2.00
2018-09-15T19:25:28.232Z,2.13
2018-09-15T19:27:31.744Z,2.63
2018-09-15T19:29:35.296Z,3.23
2018-09-15T19:31:39.159Z,3.90
2018-09-15T19:33:42.676Z,3.20
2018-09-15T19:35:46.187Z,2.80
2018-09-15T19:37:49.713Z,2.40
2018-09-15T19:39:53.184Z,2.30
2018-09-15T19:41:56.676Z,2.70
2018-09-15T19:44:00.165Z,3.30
2018-09-15T19:46:03.693Z,2.70
2018-09-15T19:48:07.631Z,2.93
2018-09-15T19:50:11.173Z,2.47
2018-09-15T19:52:14.727Z,2.90
2018-09-15T19:54:18.253Z,3.47
2018-09-15T19:56:21.799Z,2.40
2018-09-15T19:58:25.386Z,2.30
2018-09-15T20:00:28.930Z,2.93
2018-09-15T20:02:32.532Z,2.60
2018-09-15T20:04:36.079Z,2.63
2018-09-15T20:06:39.584Z,2.57
2018-09-15T20:08:43.099Z,2.60
2018-09-15T20:10:46.596Z,2.63
2018-09-15T20:12:50.156Z,2.77
2018-09-15T20:14:53.873Z,2.57
2018-09-15T20:16:56.274Z,2.67
2018-09-15T20:18:58.651Z,2.60
2018-09-15T20:21:01.173Z,2.33
2018-09-15T20:23:04.676Z,2.10
2018-09-15T20:25:08.166Z,2.13
2018-09-15T20:27:11.635Z,2.30
2018-09-15T20:29:15.163Z,2.60
2018-09-15T20:31:18.700Z,2.80
2018-09-15T20:33:22.298Z,2.87
2018-09-15T20:35:25.931Z,2.90
2018-09-15T20:37:29.476Z,2.90
2018-09-15T20:39:33.018Z,2.63
2018-09-15T20:41:36.626Z,2.43
2018-09-15T20:43:40.108Z,2.37
2018-09-15T20:45:43.613Z,2.40
2018-09-15T20:47:47.144Z,2.43
2018-09-15T20:49:50.708Z,2.20
2018-09-15T20:51:54.294Z,2.27
2018-09-15T20:53:57.760Z,2.20
2018-09-15T20:56:01.294Z,2.47
2018-09-15T20:58:04.909Z,2.40
2018-09-15T21:00:09.515Z,2.73
2018-09-15T21:02:19.631Z,2.40
2018-09-15T21:04:23.156Z,3.10
2018-09-15T21:06:26.711Z,2.57
2018-09-15T21:08:30.274Z,2.27
2018-09-15T21:10:33.784Z,2.90
2018-09-15T21:12:37.511Z,2.90
2018-09-15T21:14:41.042Z,2.93
2018-09-15T21:16:44.510Z,3.20
2018-09-15T21:18:48.063Z,3.00
2018-09-15T21:20:51.771Z,3.60
2018-09-15T21:22:55.358Z,3.30
2018-09-15T21:24:58.847Z,3.77
2018-09-15T21:27:02.641Z,4.12
2018-09-15T21:29:06.128Z,3.90
2018-09-15T21:31:09.644Z,3.70
2018-09-15T21:33:13.177Z,3.50
2018-09-15T21:35:16.729Z,3.10
2018-09-15T21:37:20.241Z,3.40
2018-09-15T21:39:23.809Z,2.90
2018-09-15T21:41:27.292Z,2.40
2018-09-15T21:43:30.863Z,2.23
2018-09-15T21:45:34.383Z,2.43
2018-09-15T21:47:37.927Z,2.10
2018-09-15T21:49:41.487Z,2.77
2018-09-15T21:51:45.316Z,2.45
2018-09-15T21:53:48.818Z,2.47
2018-09-15T21:55:52.304Z,2.30
2018-09-15T21:57:55.798Z,2.50
2018-09-15T21:59:59.607Z,2.58
2018-09-15T22:02:03.692Z,2.62
2018-09-15T22:04:12.852Z,2.77
2018-09-15T22:06:16.375Z,2.40
2018-09-15T22:08:20.546Z,2.92
2018-09-15T22:10:24.082Z,2.87
2018-09-15T22:12:27.992Z,2.77
2018-09-15T22:14:31.548Z,2.67
2018-09-15T22:16:35.869Z,3.52
2018-09-15T22:18:39.723Z,3.40
2018-09-15T22:20:43.571Z,3.00
2018-09-15T22:22:47.415Z,3.25
2018-09-15T22:24:51.441Z,3.10
2018-09-15T22:26:55.233Z,3.03
2018-09-15T22:28:59.097Z,3.10
2018-09-15T22:31:02.936Z,3.22
2018-09-15T22:33:06.812Z,2.80
2018-09-15T22:35:10.634Z,3.35
2018-09-15T22:37:14.464Z,3.30
2018-09-15T22:39:18.312Z,3.20
2018-09-15T22:41:22.104Z,3.20
2018-09-15T22:43:25.882Z,3.45
2018-09-15T22:45:29.717Z,4.00
2018-09-15T22:47:33.495Z,4.10
2018-09-15T22:49:37.298Z,4.20
2018-09-15T22:51:41.086Z,4.92
2018-09-15T22:53:45.019Z,4.33
2018-09-15T22:55:48.812Z,5.78
2018-09-15T22:57:52.560Z,4.70
2018-09-15T22:59:56.539Z,4.35
2018-09-15T23:02:00.317Z,4.40
2018-09-15T23:04:06.305Z,3.98
2018-09-15T23:06:10.107Z,3.50
2018-09-15T23:08:13.900Z,3.08
2018-09-15T23:10:17.921Z,2.65
2018-09-15T23:12:21.736Z,2.90
2018-09-15T23:14:25.642Z,2.58
2018-09-15T23:16:29.548Z,2.65
2018-09-15T23:18:33.386Z,2.60
2018-09-15T23:20:37.255Z,2.67
2018-09-15T23:22:41.022Z,2.55
2018-09-15T23:24:44.875Z,2.33
2018-09-15T23:26:48.656Z,2.62
2018-09-15T23:28:52.435Z,2.20
2018-09-15T23:30:56.304Z,2.40
2018-09-15T23:33:00.377Z,2.70
2018-09-15T23:35:04.280Z,2.33
2018-09-15T23:37:08.062Z,2.80
2018-09-15T23:39:11.933Z,7.55
2018-09-15T23:41:15.790Z,9.95
2018-09-15T23:43:19.615Z,7.12
2018-09-15T23:45:23.506Z,3.72
2018-09-15T23:47:27.376Z,3.10
2018-09-15T23:49:31.217Z,3.35
2018-09-15T23:51:35.015Z,2.85
2018-09-15T23:53:39.090Z,2.92
2018-09-15T23:55:42.928Z,2.85
2018-09-15T23:57:47.035Z,3.33
2018-09-15T23:59:50.804Z,3.37
